sensor_id;sensor_type;location;lat;lon;timestamp;pressure;altitude;pressure_sealevel;temperature;humidity
66164;BME280;52962;51.088;3.096;2022-09-21T00:01:09;102375.44;;;14.14;100.00
66164;BME280;52962;51.088;3.096;2022-09-21T00:03:38;102382.34;;;14.08;100.00
66164;BME280;52962;51.088;3.096;2022-09-21T00:06:09;102379.47;;;14.01;100.00
66164;BME280;52962;51.088;3.096;2022-09-21T00:08:38;102382.88;;;13.97;100.00
66164;BME280;52962;51.088;3.096;2022-09-21T00:11:06;102375.72;;;13.94;100.00
66164;BME280;52962;51.088;3.096;2022-09-21T00:13:35;102374.81;;;13.94;100.00
66164;BME280;52962;51.088;3.096;2022-09-21T00:16:07;102384.47;;;13.92;100.00
66164;BME280;52962;51.088;3.096;2022-09-21T00:18:36;102386.13;;;13.88;100.00
66164;BME280;52962;51.088;3.096;2022-09-21T00:21:06;102376.34;;;13.86;100.00
66164;BME280;52962;51.088;3.096;2022-09-21T00:23:34;102392.88;;;13.79;100.00
66164;BME280;52962;51.088;3.096;2022-09-21T00:26:05;102387.44;;;13.74;100.00
66164;BME280;52962;51.088;3.096;2022-09-21T00:28:33;102385.78;;;13.78;100.00
66164;BME280;52962;51.088;3.096;2022-09-21T00:31:02;102383.28;;;13.82;100.00
66164;BME280;52962;51.088;3.096;2022-09-21T00:33:32;102375.47;;;13.87;100.00
66164;BME280;52962;51.088;3.096;2022-09-21T00:36:02;102380.88;;;13.90;100.00
66164;BME280;52962;51.088;3.096;2022-09-21T00:38:30;102384.47;;;13.92;100.00
66164;BME280;52962;51.088;3.096;2022-09-21T00:40:58;102385.22;;;13.88;100.00
66164;BME280;52962;51.088;3.096;2022-09-21T00:43:27;102385.03;;;13.82;100.00
66164;BME280;52962;51.088;3.096;2022-09-21T00:45:56;102388.59;;;13.82;100.00
66164;BME280;52962;51.088;3.096;2022-09-21T00:48:27;102391.38;;;13.87;100.00
66164;BME280;52962;51.088;3.096;2022-09-21T00:51:02;102390.44;;;13.85;100.00
66164;BME280;52962;51.088;3.096;2022-09-21T00:53:33;102385.28;;;13.89;100.00
66164;BME280;52962;51.088;3.096;2022-09-21T00:56:01;102385.31;;;13.91;100.00
66164;BME280;52962;51.088;3.096;2022-09-21T00:58:33;102386.97;;;13.87;100.00
66164;BME280;52962;51.088;3.096;2022-09-21T01:01:02;102386.06;;;13.87;100.00
66164;BME280;52962;51.088;3.096;2022-09-21T01:03:30;102387.88;;;13.88;100.00
66164;BME280;52962;51.088;3.096;2022-09-21T01:06:00;102383.47;;;13.88;100.00
66164;BME280;52962;51.088;3.096;2022-09-21T01:08:29;102376.38;;;13.87;100.00
66164;BME280;52962;51.088;3.096;2022-09-21T01:11:10;102370.91;;;13.81;100.00
66164;BME280;52962;51.088;3.096;2022-09-21T01:13:54;102376.91;;;13.75;100.00
66164;BME280;52962;51.088;3.096;2022-09-21T01:16:30;102377.56;;;13.68;100.00
66164;BME280;52962;51.088;3.096;2022-09-21T01:19:12;102374.72;;;13.62;100.00
66164;BME280;52962;51.088;3.096;2022-09-21T01:21:47;102373.66;;;13.57;100.00
66164;BME280;52962;51.088;3.096;2022-09-21T01:24:30;102366.44;;;13.52;100.00
66164;BME280;52962;51.088;3.096;2022-09-21T01:27:24;102362.75;;;13.47;100.00
66164;BME280;52962;51.088;3.096;2022-09-21T01:30:02;102367.94;;;13.44;100.00
66164;BME280;52962;51.088;3.096;2022-09-21T01:32:35;102370.44;;;13.39;100.00
66164;BME280;52962;51.088;3.096;2022-09-21T01:35:07;102366.75;;;13.34;100.00
66164;BME280;52962;51.088;3.096;2022-09-21T01:37:40;102364.03;;;13.32;100.00
66164;BME280;52962;51.088;3.096;2022-09-21T01:40:13;102364.84;;;13.30;100.00
66164;BME280;52962;51.088;3.096;2022-09-21T01:42:44;102366.44;;;13.25;100.00
66164;BME280;52962;51.088;3.096;2022-09-21T01:45:18;102363.63;;;13.20;100.00
66164;BME280;52962;51.088;3.096;2022-09-21T01:47:48;102367.91;;;13.17;100.00
66164;BME280;52962;51.088;3.096;2022-09-21T01:50:19;102364.25;;;13.13;100.00
66164;BME280;52962;51.088;3.096;2022-09-21T01:52:51;102360.47;;;13.06;100.00
66164;BME280;52962;51.088;3.096;2022-09-21T01:55:23;102358.59;;;13.02;100.00
66164;BME280;52962;51.088;3.096;2022-09-21T01:57:57;102361.84;;;12.95;100.00
66164;BME280;52962;51.088;3.096;2022-09-21T02:00:29;102364.44;;;12.94;100.00
66164;BME280;52962;51.088;3.096;2022-09-21T02:03:03;102363.44;;;12.90;100.00
66164;BME280;52962;51.088;3.096;2022-09-21T02:05:32;102368.63;;;12.87;100.00
66164;BME280;52962;51.088;3.096;2022-09-21T02:08:00;102371.91;;;12.80;100.00
66164;BME280;52962;51.088;3.096;2022-09-21T02:10:29;102369.16;;;12.77;100.00
66164;BME280;52962;51.088;3.096;2022-09-21T02:13:00;102366.50;;;12.77;100.00
66164;BME280;52962;51.088;3.096;2022-09-21T02:15:41;102366.34;;;12.72;100.00
66164;BME280;52962;51.088;3.096;2022-09-21T02:18:24;102368.75;;;12.66;100.00
66164;BME280;52962;51.088;3.096;2022-09-21T02:20:58;102369.44;;;12.61;100.00
66164;BME280;52962;51.088;3.096;2022-09-21T02:23:32;102367.53;;;12.57;100.00
66164;BME280;52962;51.088;3.096;2022-09-21T02:26:04;102364.72;;;12.52;100.00
66164;BME280;52962;51.088;3.096;2022-09-21T02:28:38;102374.19;;;12.46;100.00
66164;BME280;52962;51.088;3.096;2022-09-21T02:31:13;102368.69;;;12.39;100.00
66164;BME280;52962;51.088;3.096;2022-09-21T02:33:52;102368.69;;;12.39;100.00
66164;BME280;52962;51.088;3.096;2022-09-21T02:36:29;102363.41;;;12.39;100.00
66164;BME280;52962;51.088;3.096;2022-09-21T02:39:03;102366.88;;;12.38;100.00
66164;BME280;52962;51.088;3.096;2022-09-21T02:41:34;102364.91;;;12.33;100.00
66164;BME280;52962;51.088;3.096;2022-09-21T02:44:08;102371.94;;;12.32;100.00
66164;BME280;52962;51.088;3.096;2022-09-21T02:46:42;102363.84;;;12.28;100.00
66164;BME280;52962;51.088;3.096;2022-09-21T02:49:17;102364.63;;;12.25;100.00
66164;BME280;52962;51.088;3.096;2022-09-21T02:51:48;102364.50;;;12.22;100.00
66164;BME280;52962;51.088;3.096;2022-09-21T02:54:20;102356.34;;;12.16;100.00
66164;BME280;52962;51.088;3.096;2022-09-21T02:56:49;102358.88;;;12.13;100.00
66164;BME280;52962;51.088;3.096;2022-09-21T02:59:18;102356.28;;;12.15;100.00
66164;BME280;52962;51.088;3.096;2022-09-21T03:01:49;102362.47;;;12.15;100.00
66164;BME280;52962;51.088;3.096;2022-09-21T03:04:18;102362.47;;;12.15;100.00
66164;BME280;52962;51.088;3.096;2022-09-21T03:06:46;102361.41;;;12.10;100.00
66164;BME280;52962;51.088;3.096;2022-09-21T03:09:14;102367.53;;;12.09;100.00
66164;BME280;52962;51.088;3.096;2022-09-21T03:11:42;102374.47;;;12.07;100.00
66164;BME280;52962;51.088;3.096;2022-09-21T03:14:10;102376.06;;;12.02;100.00
66164;BME280;52962;51.088;3.096;2022-09-21T03:16:38;102367.94;;;11.97;100.00
66164;BME280;52962;51.088;3.096;2022-09-21T03:19:08;102369.56;;;11.94;100.00
66164;BME280;52962;51.088;3.096;2022-09-21T03:21:38;102367.72;;;11.91;100.00
66164;BME280;52962;51.088;3.096;2022-09-21T03:24:10;102370.41;;;11.93;100.00
66164;BME280;52962;51.088;3.096;2022-09-21T03:26:38;102367.78;;;11.93;100.00
66164;BME280;52962;51.088;3.096;2022-09-21T03:29:06;102373.75;;;11.89;100.00
66164;BME280;52962;51.088;3.096;2022-09-21T03:31:34;102373.66;;;11.86;100.00
66164;BME280;52962;51.088;3.096;2022-09-21T03:34:02;102365.72;;;11.86;100.00
66164;BME280;52962;51.088;3.096;2022-09-21T03:36:31;102364.88;;;11.87;100.00
66164;BME280;52962;51.088;3.096;2022-09-21T03:38:58;102371.84;;;11.85;100.00
66164;BME280;52962;51.088;3.096;2022-09-21T03:41:26;102374.47;;;11.85;100.00
66164;BME280;52962;51.088;3.096;2022-09-21T03:43:54;102374.31;;;11.80;100.00
66164;BME280;52962;51.088;3.096;2022-09-21T03:46:22;102377.78;;;11.79;100.00
66164;BME280;52962;51.088;3.096;2022-09-21T03:48:50;102374.09;;;11.75;100.00
66164;BME280;52962;51.088;3.096;2022-09-21T03:51:18;102374.09;;;11.75;100.00
66164;BME280;52962;51.088;3.096;2022-09-21T03:53:47;102376.59;;;11.72;100.00
66164;BME280;52962;51.088;3.096;2022-09-21T03:56:15;102374.81;;;11.71;100.00
66164;BME280;52962;51.088;3.096;2022-09-21T03:58:42;102374.63;;;11.67;100.00
66164;BME280;52962;51.088;3.096;2022-09-21T04:01:10;102380.78;;;11.67;100.00
66164;BME280;52962;51.088;3.096;2022-09-21T04:03:38;102375.47;;;11.66;100.00
66164;BME280;52962;51.088;3.096;2022-09-21T04:06:07;102375.34;;;11.63;100.00
66164;BME280;52962;51.088;3.096;2022-09-21T04:08:35;102370.00;;;11.61;100.00
66164;BME280;52962;51.088;3.096;2022-09-21T04:11:09;102367.34;;;11.61;100.00
66164;BME280;52962;51.088;3.096;2022-09-21T04:13:37;102363.75;;;11.59;100.00
66164;BME280;52962;51.088;3.096;2022-09-21T04:16:05;102368.97;;;11.58;100.00
66164;BME280;52962;51.088;3.096;2022-09-21T04:18:32;102363.63;;;11.56;100.00
66164;BME280;52962;51.088;3.096;2022-09-21T04:21:00;102367.94;;;11.54;100.00
66164;BME280;52962;51.088;3.096;2022-09-21T04:23:28;102366.03;;;11.50;100.00
66164;BME280;52962;51.088;3.096;2022-09-21T04:25:56;102370.22;;;11.45;100.00
66164;BME280;52962;51.088;3.096;2022-09-21T04:28:26;102362.06;;;11.39;100.00
66164;BME280;52962;51.088;3.096;2022-09-21T04:30:55;102366.38;;;11.37;100.00
66164;BME280;52962;51.088;3.096;2022-09-21T04:33:23;102374.22;;;11.35;100.00
66164;BME280;52962;51.088;3.096;2022-09-21T04:35:53;102374.03;;;11.31;100.00
66164;BME280;52962;51.088;3.096;2022-09-21T04:38:22;102370.50;;;11.30;100.00
66164;BME280;52962;51.088;3.096;2022-09-21T04:40:56;102373.97;;;11.29;100.00
66164;BME280;52962;51.088;3.096;2022-09-21T04:43:24;102374.88;;;11.30;100.00
66164;BME280;52962;51.088;3.096;2022-09-21T04:45:53;102373.09;;;11.29;100.00
66164;BME280;52962;51.088;3.096;2022-09-21T04:48:21;102383.63;;;11.29;100.00
66164;BME280;52962;51.088;3.096;2022-09-21T04:50:49;102374.75;;;11.27;100.00
66164;BME280;52962;51.088;3.096;2022-09-21T04:55:52;102371.16;;;11.25;100.00
66164;BME280;52962;51.088;3.096;2022-09-21T04:58:21;102374.63;;;11.24;100.00
66164;BME280;52962;51.088;3.096;2022-09-21T05:00:50;102380.59;;;11.20;100.00
66164;BME280;52962;51.088;3.096;2022-09-21T05:03:20;102380.41;;;11.15;100.00
66164;BME280;52962;51.088;3.096;2022-09-21T05:05:49;102375.13;;;11.15;100.00
66164;BME280;52962;51.088;3.096;2022-09-21T05:08:17;102377.72;;;11.13;100.00
66164;BME280;52962;51.088;3.096;2022-09-21T05:11:08;102374.22;;;11.14;100.00
66164;BME280;52962;51.088;3.096;2022-09-21T05:13:35;102375.00;;;11.12;100.00
66164;BME280;52962;51.088;3.096;2022-09-21T05:16:04;102369.72;;;11.12;100.00
66164;BME280;52962;51.088;3.096;2022-09-21T05:18:33;102370.50;;;11.09;100.00
66164;BME280;52962;51.088;3.096;2022-09-21T05:21:02;102368.56;;;11.05;100.00
66164;BME280;52962;51.088;3.096;2022-09-21T05:23:32;102372.03;;;11.04;100.00
66164;BME280;52962;51.088;3.096;2022-09-21T05:26:00;102373.72;;;11.02;100.00
66164;BME280;52962;51.088;3.096;2022-09-21T05:28:28;102374.56;;;11.01;100.00
66164;BME280;52962;51.088;3.096;2022-09-21T05:30:57;102378.84;;;10.99;100.00
66164;BME280;52962;51.088;3.096;2022-09-21T05:33:49;102387.59;;;10.98;100.00
66164;BME280;52962;51.088;3.096;2022-09-21T05:36:30;102384.81;;;10.95;100.00
66164;BME280;52962;51.088;3.096;2022-09-21T05:39:05;102383.09;;;10.96;100.00
66164;BME280;52962;51.088;3.096;2022-09-21T05:41:34;102383.09;;;10.96;100.00
66164;BME280;52962;51.088;3.096;2022-09-21T05:44:02;102387.47;;;10.95;100.00
66164;BME280;52962;51.088;3.096;2022-09-21T05:46:36;102383.03;;;10.94;100.00
66164;BME280;52962;51.088;3.096;2022-09-21T05:49:16;102376.03;;;10.95;100.00
66164;BME280;52962;51.088;3.096;2022-09-21T05:51:51;102380.38;;;10.94;100.00
66164;BME280;52962;51.088;3.096;2022-09-21T05:54:31;102377.69;;;10.93;100.00
66164;BME280;52962;51.088;3.096;2022-09-21T05:57:07;102378.59;;;10.93;100.00
66164;BME280;52962;51.088;3.096;2022-09-21T05:59:47;102387.47;;;10.95;100.00
66164;BME280;52962;51.088;3.096;2022-09-21T06:02:25;102382.25;;;10.97;100.00
66164;BME280;52962;51.088;3.096;2022-09-21T06:04:56;102389.41;;;10.99;100.00
66164;BME280;52962;51.088;3.096;2022-09-21T06:07:26;102393.84;;;11.00;100.00
66164;BME280;52962;51.088;3.096;2022-09-21T06:09:54;102388.63;;;11.02;100.00
66164;BME280;52962;51.088;3.096;2022-09-21T06:12:21;102386.06;;;11.03;100.00
66164;BME280;52962;51.088;3.096;2022-09-21T06:14:49;102386.19;;;11.06;100.00
66164;BME280;52962;51.088;3.096;2022-09-21T06:17:17;102388.97;;;11.09;100.00
66164;BME280;52962;51.088;3.096;2022-09-21T06:19:45;102380.22;;;11.10;100.00
66164;BME280;52962;51.088;3.096;2022-09-21T06:22:14;102381.31;;;11.16;100.00
66164;BME280;52962;51.088;3.096;2022-09-21T06:24:42;102390.31;;;11.21;100.00
66164;BME280;52962;51.088;3.096;2022-09-21T06:27:10;102389.53;;;11.23;100.00
66164;BME280;52962;51.088;3.096;2022-09-21T06:29:39;102389.59;;;11.25;100.00
66164;BME280;52962;51.088;3.096;2022-09-21T06:32:06;102395.09;;;11.29;100.00
66164;BME280;52962;51.088;3.096;2022-09-21T06:34:34;102392.63;;;11.34;100.00
66164;BME280;52962;51.088;3.096;2022-09-21T06:37:03;102392.00;;;11.39;100.00
66164;BME280;52962;51.088;3.096;2022-09-21T06:39:32;102399.19;;;11.43;100.00
66164;BME280;52962;51.088;3.096;2022-09-21T06:42:00;102396.78;;;11.50;100.00
66164;BME280;52962;51.088;3.096;2022-09-21T06:44:28;102398.78;;;11.55;100.00
66164;BME280;52962;51.088;3.096;2022-09-21T06:46:56;102395.41;;;11.59;100.00
66164;BME280;52962;51.088;3.096;2022-09-21T06:49:24;102392.06;;;11.63;100.00
66164;BME280;52962;51.088;3.096;2022-09-21T06:51:54;102401.06;;;11.68;100.00
66164;BME280;52962;51.088;3.096;2022-09-21T06:54:22;102392.44;;;11.72;100.00
66164;BME280;52962;51.088;3.096;2022-09-21T06:56:51;102395.31;;;11.77;100.00
66164;BME280;52962;51.088;3.096;2022-09-21T06:59:25;102391.22;;;11.85;100.00
66164;BME280;52962;51.088;3.096;2022-09-21T07:01:53;102397.72;;;11.93;100.00
66164;BME280;52962;51.088;3.096;2022-09-21T07:04:24;102396.28;;;12.01;100.00
66164;BME280;52962;51.088;3.096;2022-09-21T07:06:52;102392.13;;;12.08;100.00
66164;BME280;52962;51.088;3.096;2022-09-21T07:09:20;102399.44;;;12.15;100.00
66164;BME280;52962;51.088;3.096;2022-09-21T07:12:09;102408.63;;;12.25;100.00
66164;BME280;52962;51.088;3.096;2022-09-21T07:14:37;102396.56;;;12.31;100.00
66164;BME280;52962;51.088;3.096;2022-09-21T07:17:04;102403.03;;;12.39;100.00
66164;BME280;52962;51.088;3.096;2022-09-21T07:19:32;102405.91;;;12.46;100.00
66164;BME280;52962;51.088;3.096;2022-09-21T07:22:00;102399.91;;;12.51;100.00
66164;BME280;52962;51.088;3.096;2022-09-21T07:24:28;102393.16;;;12.59;100.00
66164;BME280;52962;51.088;3.096;2022-09-21T07:26:56;102395.97;;;12.64;100.00
66164;BME280;52962;51.088;3.096;2022-09-21T07:29:25;102399.69;;;12.69;100.00
66164;BME280;52962;51.088;3.096;2022-09-21T07:31:53;102396.47;;;12.77;100.00
66164;BME280;52962;51.088;3.096;2022-09-21T07:34:21;102394.06;;;12.84;100.00
66164;BME280;52962;51.088;3.096;2022-09-21T07:36:49;102403.09;;;12.90;100.00
66164;BME280;52962;51.088;3.096;2022-09-21T07:39:17;102397.19;;;12.97;100.00
66164;BME280;52962;51.088;3.096;2022-09-21T07:41:45;102402.66;;;13.02;100.00
66164;BME280;52962;51.088;3.096;2022-09-21T07:44:13;102394.94;;;13.08;100.00
66164;BME280;52962;51.088;3.096;2022-09-21T07:46:42;102396.03;;;13.15;100.00
66164;BME280;52962;51.088;3.096;2022-09-21T07:49:13;102397.97;;;13.19;100.00
66164;BME280;52962;51.088;3.096;2022-09-21T07:51:42;102392.00;;;13.24;100.00
66164;BME280;52962;51.088;3.096;2022-09-21T07:54:10;102405.44;;;13.30;100.00
66164;BME280;52962;51.088;3.096;2022-09-21T07:56:38;102394.09;;;13.34;100.00
66164;BME280;52962;51.088;3.096;2022-09-21T07:59:06;102405.75;;;13.39;100.00
66164;BME280;52962;51.088;3.096;2022-09-21T08:01:35;102405.00;;;13.44;100.00
66164;BME280;52962;51.088;3.096;2022-09-21T08:04:06;102402.59;;;13.51;100.00
66164;BME280;52962;51.088;3.096;2022-09-21T08:06:36;102401.13;;;13.61;100.00
66164;BME280;52962;51.088;3.096;2022-09-21T08:09:05;102399.59;;;13.67;100.00
66164;BME280;52962;51.088;3.096;2022-09-21T08:11:34;102397.09;;;13.72;100.00
66164;BME280;52962;51.088;3.096;2022-09-21T08:14:03;102408.66;;;13.75;100.00
66164;BME280;52962;51.088;3.096;2022-09-21T08:16:31;102411.50;;;13.82;100.00
66164;BME280;52962;51.088;3.096;2022-09-21T08:18:59;102410.75;;;13.86;100.00
66164;BME280;52962;51.088;3.096;2022-09-21T08:21:29;102409.16;;;13.91;100.00
66164;BME280;52962;51.088;3.096;2022-09-21T08:23:56;102419.06;;;13.96;100.00
66164;BME280;52962;51.088;3.096;2022-09-21T08:26:24;102405.94;;;14.01;100.00
66164;BME280;52962;51.088;3.096;2022-09-21T08:28:53;102413.13;;;14.05;100.00
66164;BME280;52962;51.088;3.096;2022-09-21T08:31:24;102415.22;;;14.15;100.00
66164;BME280;52962;51.088;3.096;2022-09-21T08:33:54;102414.56;;;14.22;100.00
66164;BME280;52962;51.088;3.096;2022-09-21T08:36:24;102416.53;;;14.29;100.00
66164;BME280;52962;51.088;3.096;2022-09-21T08:38:53;102408.78;;;14.35;100.00
66164;BME280;52962;51.088;3.096;2022-09-21T08:41:34;102414.16;;;14.38;100.00
66164;BME280;52962;51.088;3.096;2022-09-21T08:44:12;102415.28;;;14.45;100.00
66164;BME280;52962;51.088;3.096;2022-09-21T08:46:43;102407.69;;;14.59;100.00
66164;BME280;52962;51.088;3.096;2022-09-21T08:49:16;102406.13;;;14.65;100.00
66164;BME280;52962;51.088;3.096;2022-09-21T08:51:50;102414.25;;;14.71;100.00
66164;BME280;52962;51.088;3.096;2022-09-21T08:54:26;102403.78;;;14.76;100.00
66164;BME280;52962;51.088;3.096;2022-09-21T08:56:56;102407.41;;;14.80;100.00
66164;BME280;52962;51.088;3.096;2022-09-21T08:59:32;102413.78;;;14.86;100.00
66164;BME280;52962;51.088;3.096;2022-09-21T09:02:07;102412.16;;;14.91;100.00
66164;BME280;52962;51.088;3.096;2022-09-21T09:04:48;102415.91;;;14.99;100.00
66164;BME280;52962;51.088;3.096;2022-09-21T09:07:32;102415.09;;;15.02;100.00
66164;BME280;52962;51.088;3.096;2022-09-21T09:10:18;102408.22;;;15.09;100.00
66164;BME280;52962;51.088;3.096;2022-09-21T09:12:58;102411.16;;;15.19;100.00
66164;BME280;52962;51.088;3.096;2022-09-21T09:15:45;102411.25;;;15.24;100.00
66164;BME280;52962;51.088;3.096;2022-09-21T09:18:22;102413.22;;;15.31;100.00
66164;BME280;52962;51.088;3.096;2022-09-21T09:20:55;102416.81;;;15.33;100.00
66164;BME280;52962;51.088;3.096;2022-09-21T09:23:26;102416.91;;;15.36;100.00
66164;BME280;52962;51.088;3.096;2022-09-21T09:26:02;102413.38;;;15.37;100.00
66164;BME280;52962;51.088;3.096;2022-09-21T09:28:35;102412.59;;;15.41;100.00
66164;BME280;52962;51.088;3.096;2022-09-21T09:31:10;102417.22;;;15.48;100.00
66164;BME280;52962;51.088;3.096;2022-09-21T09:33:45;102417.38;;;15.54;100.00
66164;BME280;52962;51.088;3.096;2022-09-21T09:36:15;102411.34;;;15.60;100.00
66164;BME280;52962;51.088;3.096;2022-09-21T09:39:09;102402.66;;;15.68;100.00
66164;BME280;52962;51.088;3.096;2022-09-21T09:44:47;102404.91;;;15.88;100.00
66164;BME280;52962;51.088;3.096;2022-09-21T09:47:29;102406.81;;;15.93;100.00
66164;BME280;52962;51.088;3.096;2022-09-21T09:50:04;102412.25;;;15.99;100.00
66164;BME280;52962;51.088;3.096;2022-09-21T09:52:34;102406.41;;;16.14;100.00
66164;BME280;52962;51.088;3.096;2022-09-21T09:55:13;102404.75;;;16.19;100.00
66164;BME280;52962;51.088;3.096;2022-09-21T09:57:44;102400.78;;;16.41;100.00
66164;BME280;52962;51.088;3.096;2022-09-21T10:00:14;102410.00;;;16.58;100.00
66164;BME280;52962;51.088;3.096;2022-09-21T10:02:47;102410.28;;;16.72;100.00
66164;BME280;52962;51.088;3.096;2022-09-21T10:05:22;102414.31;;;16.95;100.00
66164;BME280;52962;51.088;3.096;2022-09-21T10:07:51;102399.59;;;17.66;100.00
66164;BME280;52962;51.088;3.096;2022-09-21T10:10:29;102404.97;;;18.29;100.00
66164;BME280;52962;51.088;3.096;2022-09-21T10:13:05;102403.09;;;18.96;100.00
66164;BME280;52962;51.088;3.096;2022-09-21T10:15:48;102392.50;;;19.02;100.00
66164;BME280;52962;51.088;3.096;2022-09-21T10:18:19;102401.06;;;18.74;100.00
66164;BME280;52962;51.088;3.096;2022-09-21T10:20:56;102399.03;;;18.51;100.00
66164;BME280;52962;51.088;3.096;2022-09-21T10:23:26;102398.75;;;18.30;100.00
66164;BME280;52962;51.088;3.096;2022-09-21T10:25:58;102394.00;;;18.09;100.00
66164;BME280;52962;51.088;3.096;2022-09-21T10:28:29;102399.16;;;17.97;100.00
66164;BME280;52962;51.088;3.096;2022-09-21T10:31:16;102399.84;;;17.82;100.00
66164;BME280;52962;51.088;3.096;2022-09-21T10:33:50;102399.72;;;17.75;100.00
66164;BME280;52962;51.088;3.096;2022-09-21T10:36:36;102391.63;;;17.69;100.00
66164;BME280;52962;51.088;3.096;2022-09-21T10:39:27;102394.22;;;17.64;100.00
66164;BME280;52962;51.088;3.096;2022-09-21T10:41:58;102394.47;;;17.81;100.00
66164;BME280;52962;51.088;3.096;2022-09-21T10:44:36;102395.50;;;17.89;100.00
66164;BME280;52962;51.088;3.096;2022-09-21T10:47:16;102389.94;;;17.74;100.00
66164;BME280;52962;51.088;3.096;2022-09-21T10:49:47;102388.97;;;17.67;100.00
66164;BME280;52962;51.088;3.096;2022-09-21T10:52:21;102383.47;;;17.58;100.00
66164;BME280;52962;51.088;3.096;2022-09-21T10:54:53;102387.84;;;17.54;100.00
66164;BME280;52962;51.088;3.096;2022-09-21T10:57:23;102386.06;;;17.55;100.00
66164;BME280;52962;51.088;3.096;2022-09-21T10:59:53;102383.41;;;17.55;100.00
66164;BME280;52962;51.088;3.096;2022-09-21T11:02:34;102386.09;;;17.56;100.00
66164;BME280;52962;51.088;3.096;2022-09-21T11:05:10;102385.34;;;17.65;100.00
66164;BME280;52962;51.088;3.096;2022-09-21T11:07:44;102379.13;;;17.64;100.00
66164;BME280;52962;51.088;3.096;2022-09-21T11:10:18;102386.28;;;17.69;100.00
66164;BME280;52962;51.088;3.096;2022-09-21T11:12:50;102381.78;;;17.63;100.00
66164;BME280;52962;51.088;3.096;2022-09-21T11:15:26;102387.03;;;17.60;100.00
66164;BME280;52962;51.088;3.096;2022-09-21T11:18:05;102387.19;;;17.68;100.00
66164;BME280;52962;51.088;3.096;2022-09-21T11:20:45;102381.16;;;17.81;100.00
66164;BME280;52962;51.088;3.096;2022-09-21T11:23:27;102370.66;;;17.91;100.00
66164;BME280;52962;51.088;3.096;2022-09-21T11:26:06;102375.06;;;17.89;100.00
66164;BME280;52962;51.088;3.096;2022-09-21T11:28:40;102376.13;;;18.02;100.00
66164;BME280;52962;51.088;3.096;2022-09-21T11:31:23;102370.25;;;18.26;100.00
66164;BME280;52962;51.088;3.096;2022-09-21T11:34:13;102362.47;;;18.43;100.00
66164;BME280;52962;51.088;3.096;2022-09-21T11:36:54;102362.81;;;18.70;100.00
66164;BME280;52962;51.088;3.096;2022-09-21T11:39:27;102363.00;;;18.91;100.00
66164;BME280;52962;51.088;3.096;2022-09-21T11:42:13;102352.34;;;18.91;100.00
66164;BME280;52962;51.088;3.096;2022-09-21T11:44:50;102360.25;;;18.82;100.00
66164;BME280;52962;51.088;3.096;2022-09-21T11:47:34;102354.88;;;18.79;100.00
66164;BME280;52962;51.088;3.096;2022-09-21T11:50:33;102361.06;;;18.75;100.00
66164;BME280;52962;51.088;3.096;2022-09-21T11:53:17;102350.41;;;18.78;100.00
66164;BME280;52962;51.088;3.096;2022-09-21T11:55:59;102356.59;;;18.74;100.00
66164;BME280;52962;51.088;3.096;2022-09-21T11:58:34;102345.03;;;18.71;100.00
66164;BME280;52962;51.088;3.096;2022-09-21T12:01:14;102350.34;;;18.69;100.00
66164;BME280;52962;51.088;3.096;2022-09-21T12:03:59;102348.56;;;18.68;100.00
66164;BME280;52962;51.088;3.096;2022-09-21T12:06:42;102336.13;;;18.70;100.00
66164;BME280;52962;51.088;3.096;2022-09-21T12:09:45;102333.50;;;18.78;100.00
66164;BME280;52962;51.088;3.096;2022-09-21T12:12:20;102333.53;;;18.81;100.00
66164;BME280;52962;51.088;3.096;2022-09-21T12:14:55;102334.53;;;18.90;100.00
66164;BME280;52962;51.088;3.096;2022-09-21T12:17:33;102331.91;;;18.97;100.00
66164;BME280;52962;51.088;3.096;2022-09-21T12:20:12;102326.69;;;19.10;100.00
66164;BME280;52962;51.088;3.096;2022-09-21T12:22:43;102325.91;;;19.23;100.00
66164;BME280;52962;51.088;3.096;2022-09-21T12:25:15;102324.13;;;19.21;100.00
66164;BME280;52962;51.088;3.096;2022-09-21T12:27:48;102327.75;;;19.27;100.00
66164;BME280;52962;51.088;3.096;2022-09-21T12:30:19;102322.47;;;19.38;100.00
66164;BME280;52962;51.088;3.096;2022-09-21T12:32:54;102321.66;;;19.47;100.00
66164;BME280;52962;51.088;3.096;2022-09-21T12:35:29;102321.72;;;19.53;100.00
66164;BME280;52962;51.088;3.096;2022-09-21T12:38:05;102318.00;;;19.36;100.00
66164;BME280;52962;51.088;3.096;2022-09-21T12:40:38;102323.34;;;19.34;100.00
66164;BME280;52962;51.088;3.096;2022-09-21T12:43:17;102315.25;;;19.25;100.00
66164;BME280;52962;51.088;3.096;2022-09-21T12:45:51;102310.88;;;19.35;100.00
66164;BME280;52962;51.088;3.096;2022-09-21T12:48:29;102307.38;;;19.45;100.00
66164;BME280;52962;51.088;3.096;2022-09-21T12:51:09;102306.59;;;19.53;100.00
66164;BME280;52962;51.088;3.096;2022-09-21T12:53:41;102312.03;;;19.66;100.00
66164;BME280;52962;51.088;3.096;2022-09-21T12:56:28;102301.28;;;19.56;100.00
66164;BME280;52962;51.088;3.096;2022-09-21T12:59:15;102295.75;;;19.38;100.00
66164;BME280;52962;51.088;3.096;2022-09-21T13:01:48;102299.25;;;19.28;100.00
66164;BME280;52962;51.088;3.096;2022-09-21T13:04:44;102291.19;;;19.23;100.00
66164;BME280;52962;51.088;3.096;2022-09-21T13:07:28;102288.47;;;19.16;100.00
66164;BME280;52962;51.088;3.096;2022-09-21T13:10:06;102291.19;;;19.23;100.00
66164;BME280;52962;51.088;3.096;2022-09-21T13:12:39;102293.00;;;19.26;100.00
66164;BME280;52962;51.088;3.096;2022-09-21T13:15:17;102286.69;;;19.16;100.00